createdAt,value
2017-12-12T00:02:35.262Z,43.17
2017-12-12T00:17:35.220Z,34.53
2017-12-12T00:32:34.556Z,31.20
2017-12-12T00:47:36.577Z,41.90
2017-12-12T01:02:34.440Z,39.63
2017-12-12T01:17:34.391Z,40.93
2017-12-12T01:32:34.828Z,31.53
2017-12-12T01:47:34.738Z,28.53
2017-12-12T02:02:34.751Z,36.37
2017-12-12T02:17:34.685Z,37.20
2017-12-12T02:32:35.060Z,33.87
2017-12-12T02:47:35.049Z,33.50
2017-12-12T03:02:34.952Z,32.63
2017-12-12T03:17:34.885Z,29.93
2017-12-12T03:32:35.224Z,25.87
2017-12-12T03:47:35.149Z,25.30
2017-12-12T04:02:37.076Z,32.60
2017-12-12T04:17:35.044Z,23.00
2017-12-12T04:32:36.383Z,20.47
2017-12-12T04:47:34.360Z,24.00
2017-12-12T05:02:35.400Z,35.83
2017-12-12T05:17:36.356Z,30.90
2017-12-12T05:32:34.628Z,28.27
2017-12-12T05:47:34.561Z,28.23
2017-12-12T06:02:33.281Z,30.07
2017-12-12T06:17:34.475Z,23.63
2017-12-12T06:32:34.335Z,25.80
2017-12-12T06:47:34.851Z,23.03
2017-12-12T07:02:34.752Z,22.67
2017-12-12T07:17:34.688Z,22.93
2017-12-12T07:32:34.999Z,22.97
2017-12-12T07:47:36.048Z,23.00
2017-12-12T08:02:34.776Z,18.97
2017-12-12T08:17:34.928Z,25.33
2017-12-12T08:32:37.029Z,26.23
2017-12-12T08:47:37.232Z,23.10
2017-12-12T09:02:35.099Z,21.40
2017-12-12T09:17:35.051Z,27.07
2017-12-12T09:32:34.422Z,24.20
2017-12-12T09:47:34.408Z,20.67
2017-12-12T10:02:36.400Z,20.23
2017-12-12T10:17:34.100Z,23.13
2017-12-12T10:32:34.656Z,24.63
2017-12-12T10:47:34.600Z,23.00
2017-12-12T11:02:34.555Z,21.87
2017-12-12T11:17:37.510Z,21.27
2017-12-12T11:32:34.945Z,20.23
2017-12-12T11:47:36.795Z,19.30
2017-12-12T12:02:34.772Z,24.50
2017-12-12T12:17:34.778Z,19.73
2017-12-12T12:32:35.103Z,17.97
2017-12-12T12:47:35.040Z,17.10
2017-12-12T13:02:34.995Z,20.10
2017-12-12T13:17:34.973Z,23.30
2017-12-12T13:32:34.373Z,23.87
2017-12-12T13:47:35.035Z,22.83
2017-12-12T14:02:35.232Z,24.40
2017-12-12T14:17:35.132Z,25.03
2017-12-12T14:32:34.277Z,31.47
2017-12-12T14:47:34.216Z,17.83
2017-12-12T15:02:34.448Z,18.93
2017-12-12T15:17:33.615Z,26.83
2017-12-12T15:32:36.516Z,23.57
2017-12-12T15:47:34.447Z,26.03
2017-12-12T16:02:34.587Z,27.33
2017-12-12T16:17:36.523Z,29.97
2017-12-12T16:32:35.021Z,25.47
2017-12-12T16:47:37.938Z,34.80
2017-12-12T17:02:34.884Z,31.80
2017-12-12T17:17:34.889Z,35.30
2017-12-12T17:32:35.217Z,16.00
2017-12-12T17:47:35.182Z,27.60
2017-12-12T18:02:37.063Z,23.73
2017-12-12T18:17:35.033Z,26.70
2017-12-12T18:32:34.437Z,26.17
2017-12-12T18:47:34.331Z,34.70
2017-12-12T19:02:35.381Z,30.20
2017-12-12T19:17:34.264Z,33.63
2017-12-12T19:32:34.692Z,26.47
2017-12-12T19:47:37.922Z,34.03
2017-12-12T20:02:34.361Z,32.80
2017-12-12T20:17:34.005Z,34.77
2017-12-12T20:32:34.627Z,32.93
2017-12-12T20:47:36.997Z,29.10
2017-12-12T21:02:34.764Z,31.73
2017-12-12T21:17:37.592Z,36.53
2017-12-12T21:32:35.620Z,39.63
2017-12-12T21:47:37.034Z,34.40
2017-12-12T22:02:34.976Z,34.43
2017-12-12T22:17:36.680Z,44.17
2017-12-12T22:32:36.062Z,41.13
2017-12-12T22:47:37.211Z,36.30
2017-12-12T23:02:34.246Z,37.10
2017-12-12T23:32:37.522Z,35.27
2017-12-12T23:47:33.763Z,35.67
